メインページ
METAR-TAF:

METAR-TAF

空港 :

ウィスラー, ブリティッシュコロンビア州, カナダ

緯度: 50-08N, 経度: 122-57W, 海抜: 658m

現時点の気象観測

当レポートは30分前の17:43(UTC)に作成
南西の風 4kt
気温 7°C
湿度 100%
気圧 1014 hPa
視程: 16.1km
高度800ftの雲は散在している
高度1900ftの曇り

METAR: CWAE 171743Z 23004KT 10SM SCT008 OVC019 07/07 A2995 RMK ST4SC4 WND ESTD SLP152

時間: 10:13 (18:13 UTC)


TAF: 見つかりません

4,000以上の空港の気象観測と天気予報(METAR報とTAF報)

利用可能な観測所は地図上に黄色い丸と赤い丸で示す。

丸の上にカーソルを重ねると観測所名を参照できる。

次にクリックすると気象観測と天気予報を参照できる。

マップの切り替え:黒色「×」印の緑ボタンをクリックして拡大、「-」印の緑ボタンをクリックして縮小、緑色の三角印をクリックして隣りの地図に切り替え


METAR-TAF: